sensor_id;sensor_type;location;lat;lon;timestamp;pressure;altitude;pressure_sealevel;temperature;humidity
20013;BME280;10167;42.852;23.042;2023-04-28T00:00:24;95116.88;;;5.80;100.00
20013;BME280;10167;42.852;23.042;2023-04-28T00:02:53;95115.25;;;5.79;100.00
20013;BME280;10167;42.852;23.042;2023-04-28T00:05:23;95117.69;;;5.74;100.00
20013;BME280;10167;42.852;23.042;2023-04-28T00:07:53;95119.91;;;5.83;100.00
20013;BME280;10167;42.852;23.042;2023-04-28T00:10:22;95110.59;;;5.81;100.00
20013;BME280;10167;42.852;23.042;2023-04-28T00:12:51;95118.69;;;5.86;100.00
20013;BME280;10167;42.852;23.042;2023-04-28T00:15:21;95119.88;;;5.70;100.00
20013;BME280;10167;42.852;23.042;2023-04-28T00:17:50;95116.69;;;5.75;100.00
20013;BME280;10167;42.852;23.042;2023-04-28T00:20:20;95112.84;;;5.84;100.00
20013;BME280;10167;42.852;23.042;2023-04-28T00:22:49;95117.50;;;5.89;100.00
20013;BME280;10167;42.852;23.042;2023-04-28T00:25:19;95115.28;;;5.92;100.00
20013;BME280;10167;42.852;23.042;2023-04-28T00:27:48;95120.28;;;5.80;100.00
20013;BME280;10167;42.852;23.042;2023-04-28T00:30:18;95120.50;;;5.72;100.00
20013;BME280;10167;42.852;23.042;2023-04-28T00:32:47;95117.06;;;5.78;100.00
20013;BME280;10167;42.852;23.042;2023-04-28T00:35:17;95116.03;;;5.66;100.00
20013;BME280;10167;42.852;23.042;2023-04-28T00:37:46;95115.03;;;5.61;100.00
20013;BME280;10167;42.852;23.042;2023-04-28T00:40:15;95128.13;;;5.54;100.00
20013;BME280;10167;42.852;23.042;2023-04-28T00:42:46;95117.06;;;5.52;100.00
20013;BME280;10167;42.852;23.042;2023-04-28T00:45:15;95116.63;;;5.48;100.00
20013;BME280;10167;42.852;23.042;2023-04-28T00:47:44;95113.78;;;5.43;100.00
20013;BME280;10167;42.852;23.042;2023-04-28T00:50:13;95114.63;;;5.51;100.00
20013;BME280;10167;42.852;23.042;2023-04-28T00:52:44;95121.50;;;5.52;100.00
20013;BME280;10167;42.852;23.042;2023-04-28T00:55:14;95114.63;;;5.64;97.93
20013;BME280;10167;42.852;23.042;2023-04-28T00:57:45;95120.69;;;5.71;98.07
20013;BME280;10167;42.852;23.042;2023-04-28T01:00:15;95120.88;;;5.76;98.50
20013;BME280;10167;42.852;23.042;2023-04-28T01:02:44;95121.94;;;5.75;95.93
20013;BME280;10167;42.852;23.042;2023-04-28T01:05:13;95124.97;;;5.85;94.46
20013;BME280;10167;42.852;23.042;2023-04-28T01:07:43;95125.78;;;5.86;95.42
20013;BME280;10167;42.852;23.042;2023-04-28T01:10:12;95131.25;;;5.91;94.09
20013;BME280;10167;42.852;23.042;2023-04-28T01:12:41;95135.91;;;5.89;97.27
20013;BME280;10167;42.852;23.042;2023-04-28T01:15:15;95131.00;;;5.79;100.00
20013;BME280;10167;42.852;23.042;2023-04-28T01:17:45;95127.16;;;5.62;100.00
20013;BME280;10167;42.852;23.042;2023-04-28T01:20:15;95129.19;;;5.60;100.00
20013;BME280;10167;42.852;23.042;2023-04-28T01:22:44;95127.91;;;5.42;100.00
20013;BME280;10167;42.852;23.042;2023-04-28T01:25:16;95125.09;;;5.44;100.00
20013;BME280;10167;42.852;23.042;2023-04-28T01:27:46;95125.88;;;5.31;100.00
20013;BME280;10167;42.852;23.042;2023-04-28T01:30:15;95137.31;;;5.10;100.00
20013;BME280;10167;42.852;23.042;2023-04-28T01:32:44;95138.50;;;4.95;100.00
20013;BME280;10167;42.852;23.042;2023-04-28T01:35:13;95136.56;;;4.75;100.00
20013;BME280;10167;42.852;23.042;2023-04-28T01:37:42;95135.66;;;4.55;100.00
20013;BME280;10167;42.852;23.042;2023-04-28T01:40:12;95142.63;;;4.42;100.00
20013;BME280;10167;42.852;23.042;2023-04-28T01:42:43;95148.19;;;4.25;100.00
20013;BME280;10167;42.852;23.042;2023-04-28T01:45:12;95143.88;;;4.18;100.00
20013;BME280;10167;42.852;23.042;2023-04-28T01:47:42;95151.03;;;4.03;100.00
20013;BME280;10167;42.852;23.042;2023-04-28T01:50:12;95143.81;;;4.05;100.00
20013;BME280;10167;42.852;23.042;2023-04-28T01:52:41;95145.31;;;3.92;100.00
20013;BME280;10167;42.852;23.042;2023-04-28T01:55:10;95144.50;;;3.92;100.00
20013;BME280;10167;42.852;23.042;2023-04-28T01:57:40;95141.63;;;3.87;100.00
20013;BME280;10167;42.852;23.042;2023-04-28T02:00:15;95143.88;;;3.90;100.00
20013;BME280;10167;42.852;23.042;2023-04-28T02:02:50;95140.00;;;3.86;100.00
20013;BME280;10167;42.852;23.042;2023-04-28T02:05:20;95140.81;;;3.86;100.00
20013;BME280;10167;42.852;23.042;2023-04-28T02:07:51;95145.44;;;3.84;100.00
20013;BME280;10167;42.852;23.042;2023-04-28T02:10:20;95142.81;;;3.84;100.00
20013;BME280;10167;42.852;23.042;2023-04-28T02:12:49;95145.44;;;3.84;100.00
20013;BME280;10167;42.852;23.042;2023-04-28T02:15:21;95148.47;;;3.81;100.00
20013;BME280;10167;42.852;23.042;2023-04-28T02:17:50;95146.88;;;3.87;100.00
20013;BME280;10167;42.852;23.042;2023-04-28T02:20:19;95153.56;;;3.89;100.00
20013;BME280;10167;42.852;23.042;2023-04-28T02:22:48;95155.19;;;3.90;100.00
20013;BME280;10167;42.852;23.042;2023-04-28T02:25:18;95158.97;;;3.88;100.00
20013;BME280;10167;42.852;23.042;2023-04-28T02:27:47;95159.25;;;3.93;100.00
20013;BME280;10167;42.852;23.042;2023-04-28T02:30:16;95158.25;;;3.94;100.00
20013;BME280;10167;42.852;23.042;2023-04-28T02:32:47;95163.47;;;3.94;100.00
20013;BME280;10167;42.852;23.042;2023-04-28T02:35:16;95167.09;;;3.93;100.00
20013;BME280;10167;42.852;23.042;2023-04-28T02:37:45;95164.22;;;3.88;100.00
20013;BME280;10167;42.852;23.042;2023-04-28T02:40:15;95164.22;;;3.88;100.00
20013;BME280;10167;42.852;23.042;2023-04-28T02:42:44;95167.78;;;3.80;100.00
20013;BME280;10167;42.852;23.042;2023-04-28T02:45:13;95165.97;;;3.81;100.00
20013;BME280;10167;42.852;23.042;2023-04-28T02:47:42;95172.59;;;3.77;100.00
20013;BME280;10167;42.852;23.042;2023-04-28T02:50:13;95178.19;;;3.74;100.00
20013;BME280;10167;42.852;23.042;2023-04-28T02:52:42;95175.03;;;3.78;100.00
20013;BME280;10167;42.852;23.042;2023-04-28T02:55:15;95182.50;;;3.81;100.00
20013;BME280;10167;42.852;23.042;2023-04-28T02:57:52;95181.50;;;3.82;100.00
20013;BME280;10167;42.852;23.042;2023-04-28T03:00:21;95182.44;;;3.75;100.00
20013;BME280;10167;42.852;23.042;2023-04-28T03:02:51;95178.00;;;3.75;100.00
20013;BME280;10167;42.852;23.042;2023-04-28T03:05:23;95185.88;;;3.75;100.00
20013;BME280;10167;42.852;23.042;2023-04-28T03:07:52;95186.44;;;3.71;100.00
20013;BME280;10167;42.852;23.042;2023-04-28T03:10:21;95185.50;;;3.78;100.00
20013;BME280;10167;42.852;23.042;2023-04-28T03:12:51;95184.41;;;3.73;100.00
20013;BME280;10167;42.852;23.042;2023-04-28T03:15:20;95191.22;;;3.67;100.00
20013;BME280;10167;42.852;23.042;2023-04-28T03:17:49;95196.66;;;3.65;100.00
20013;BME280;10167;42.852;23.042;2023-04-28T03:20:18;95194.53;;;3.54;100.00
20013;BME280;10167;42.852;23.042;2023-04-28T03:22:49;95198.22;;;3.60;100.00
20013;BME280;10167;42.852;23.042;2023-04-28T03:25:18;95204.38;;;3.52;100.00
20013;BME280;10167;42.852;23.042;2023-04-28T03:27:51;95206.16;;;3.52;100.00
20013;BME280;10167;42.852;23.042;2023-04-28T03:30:21;95202.56;;;3.53;100.00
20013;BME280;10167;42.852;23.042;2023-04-28T03:32:51;95209.78;;;3.51;100.00
20013;BME280;10167;42.852;23.042;2023-04-28T03:35:20;95216.09;;;3.56;100.00
20013;BME280;10167;42.852;23.042;2023-04-28T03:37:50;95217.53;;;3.59;100.00
20013;BME280;10167;42.852;23.042;2023-04-28T03:40:20;95222.16;;;3.57;100.00
20013;BME280;10167;42.852;23.042;2023-04-28T03:43:09;95225.81;;;3.62;100.00
20013;BME280;10167;42.852;23.042;2023-04-28T03:46:00;95238.41;;;3.52;100.00
20013;BME280;10167;42.852;23.042;2023-04-28T03:48:29;95235.91;;;3.44;100.00
20013;BME280;10167;42.852;23.042;2023-04-28T03:50:58;95237.25;;;3.40;100.00
20013;BME280;10167;42.852;23.042;2023-04-28T03:53:29;95232.41;;;3.37;100.00
20013;BME280;10167;42.852;23.042;2023-04-28T03:55:58;95247.84;;;3.32;100.00
20013;BME280;10167;42.852;23.042;2023-04-28T03:58:27;95244.50;;;3.38;100.00
20013;BME280;10167;42.852;23.042;2023-04-28T04:00:57;95245.50;;;3.37;100.00
20013;BME280;10167;42.852;23.042;2023-04-28T04:03:27;95243.69;;;3.38;100.00
20013;BME280;10167;42.852;23.042;2023-04-28T04:05:57;95245.56;;;3.44;100.00
20013;BME280;10167;42.852;23.042;2023-04-28T04:08:26;95253.25;;;3.45;100.00
20013;BME280;10167;42.852;23.042;2023-04-28T04:10:57;95255.31;;;3.50;100.00
20013;BME280;10167;42.852;23.042;2023-04-28T04:13:26;95252.50;;;3.51;100.00
20013;BME280;10167;42.852;23.042;2023-04-28T04:15:56;95261.72;;;3.47;100.00
20013;BME280;10167;42.852;23.042;2023-04-28T04:18:26;95260.09;;;3.46;100.00
20013;BME280;10167;42.852;23.042;2023-04-28T04:21:09;95261.53;;;3.49;100.00
20013;BME280;10167;42.852;23.042;2023-04-28T04:23:39;95256.19;;;3.57;100.00
20013;BME280;10167;42.852;23.042;2023-04-28T04:26:10;95261.94;;;3.67;100.00
20013;BME280;10167;42.852;23.042;2023-04-28T04:28:39;95257.56;;;3.74;100.00
20013;BME280;10167;42.852;23.042;2023-04-28T04:31:09;95264.13;;;3.85;100.00
20013;BME280;10167;42.852;23.042;2023-04-28T04:33:39;95267.81;;;3.90;100.00
20013;BME280;10167;42.852;23.042;2023-04-28T04:36:09;95263.28;;;3.99;100.00
20013;BME280;10167;42.852;23.042;2023-04-28T04:38:38;95269.81;;;4.10;100.00
20013;BME280;10167;42.852;23.042;2023-04-28T04:41:15;95273.94;;;4.19;100.00
20013;BME280;10167;42.852;23.042;2023-04-28T04:43:45;95271.44;;;4.32;100.00
20013;BME280;10167;42.852;23.042;2023-04-28T04:46:17;95274.94;;;4.39;100.00
20013;BME280;10167;42.852;23.042;2023-04-28T04:48:47;95280.78;;;4.41;100.00
20013;BME280;10167;42.852;23.042;2023-04-28T04:51:16;95280.91;;;4.54;100.00
20013;BME280;10167;42.852;23.042;2023-04-28T04:53:46;95279.00;;;4.69;100.00
20013;BME280;10167;42.852;23.042;2023-04-28T04:56:17;95277.50;;;4.88;100.00
20013;BME280;10167;42.852;23.042;2023-04-28T04:58:46;95290.16;;;5.06;100.00
20013;BME280;10167;42.852;23.042;2023-04-28T05:01:36;95290.66;;;5.23;100.00
20013;BME280;10167;42.852;23.042;2023-04-28T05:04:05;95290.16;;;5.40;100.00
20013;BME280;10167;42.852;23.042;2023-04-28T05:06:35;95290.00;;;5.55;100.00
20013;BME280;10167;42.852;23.042;2023-04-28T05:09:05;95294.53;;;5.74;100.00
20013;BME280;10167;42.852;23.042;2023-04-28T05:11:36;95298.44;;;5.92;100.00
20013;BME280;10167;42.852;23.042;2023-04-28T05:14:05;95290.59;;;6.05;100.00
20013;BME280;10167;42.852;23.042;2023-04-28T05:16:34;95306.84;;;6.28;100.00
20013;BME280;10167;42.852;23.042;2023-04-28T05:19:15;95299.34;;;6.45;100.00
20013;BME280;10167;42.852;23.042;2023-04-28T05:21:44;95291.28;;;6.66;100.00
20013;BME280;10167;42.852;23.042;2023-04-28T05:24:14;95301.19;;;6.84;97.94
20013;BME280;10167;42.852;23.042;2023-04-28T05:26:45;95300.75;;;7.00;99.02
20013;BME280;10167;42.852;23.042;2023-04-28T05:29:15;95300.75;;;7.20;91.54
20013;BME280;10167;42.852;23.042;2023-04-28T05:31:44;95297.06;;;7.34;89.48
20013;BME280;10167;42.852;23.042;2023-04-28T05:34:14;95300.50;;;7.41;88.87
20013;BME280;10167;42.852;23.042;2023-04-28T05:36:44;95301.47;;;7.60;83.77
20013;BME280;10167;42.852;23.042;2023-04-28T05:39:13;95306.53;;;7.61;84.42
20013;BME280;10167;42.852;23.042;2023-04-28T05:41:42;95305.25;;;7.71;84.11
20013;BME280;10167;42.852;23.042;2023-04-28T05:44:13;95308.72;;;7.78;77.27
20013;BME280;10167;42.852;23.042;2023-04-28T05:46:45;95302.63;;;7.77;81.48
20013;BME280;10167;42.852;23.042;2023-04-28T05:49:18;95309.00;;;8.01;79.57
20013;BME280;10167;42.852;23.042;2023-04-28T05:51:47;95311.66;;;8.01;76.72
20013;BME280;10167;42.852;23.042;2023-04-28T05:54:16;95308.19;;;8.00;77.05
20013;BME280;10167;42.852;23.042;2023-04-28T05:56:49;95308.91;;;8.14;76.24
20013;BME280;10167;42.852;23.042;2023-04-28T05:59:19;95305.47;;;8.14;73.26
20013;BME280;10167;42.852;23.042;2023-04-28T06:01:48;95293.69;;;8.16;72.56
20013;BME280;10167;42.852;23.042;2023-04-28T06:04:19;95300.09;;;8.40;71.57
20013;BME280;10167;42.852;23.042;2023-04-28T06:06:49;95298.78;;;8.49;67.45
20013;BME280;10167;42.852;23.042;2023-04-28T06:09:19;95299.34;;;8.58;69.21
20013;BME280;10167;42.852;23.042;2023-04-28T06:11:48;95304.75;;;8.69;68.51
20013;BME280;10167;42.852;23.042;2023-04-28T06:14:19;95300.69;;;8.92;65.84
20013;BME280;10167;42.852;23.042;2023-04-28T06:16:49;95308.63;;;8.92;63.73
20013;BME280;10167;42.852;23.042;2023-04-28T06:19:18;95306.09;;;9.03;60.83
20013;BME280;10167;42.852;23.042;2023-04-28T06:21:48;95308.09;;;9.08;61.08
20013;BME280;10167;42.852;23.042;2023-04-28T06:24:19;95301.97;;;9.32;60.16
20013;BME280;10167;42.852;23.042;2023-04-28T06:26:52;95298.50;;;9.32;60.77
20013;BME280;10167;42.852;23.042;2023-04-28T06:29:23;95308.06;;;9.33;58.36
20013;BME280;10167;42.852;23.042;2023-04-28T06:31:54;95307.94;;;9.46;58.12
20013;BME280;10167;42.852;23.042;2023-04-28T06:34:24;95309.38;;;9.60;56.54
20013;BME280;10167;42.852;23.042;2023-04-28T06:36:57;95313.09;;;9.59;56.14
20013;BME280;10167;42.852;23.042;2023-04-28T06:39:26;95314.91;;;9.77;54.35
20013;BME280;10167;42.852;23.042;2023-04-28T06:41:55;95314.38;;;9.87;54.78
20013;BME280;10167;42.852;23.042;2023-04-28T06:44:28;95297.56;;;9.99;56.92
20013;BME280;10167;42.852;23.042;2023-04-28T06:46:58;95297.72;;;10.34;58.25
20013;BME280;10167;42.852;23.042;2023-04-28T06:49:29;95308.69;;;10.38;52.87
20013;BME280;10167;42.852;23.042;2023-04-28T06:51:59;95311.13;;;10.51;52.39
20013;BME280;10167;42.852;23.042;2023-04-28T06:54:29;95304.13;;;10.57;52.66
20013;BME280;10167;42.852;23.042;2023-04-28T06:56:59;95307.22;;;10.53;51.98
20013;BME280;10167;42.852;23.042;2023-04-28T06:59:30;95292.06;;;10.72;55.01
20013;BME280;10167;42.852;23.042;2023-04-28T07:01:59;95302.22;;;10.87;53.43
20013;BME280;10167;42.852;23.042;2023-04-28T07:04:28;95306.16;;;10.96;51.91
20013;BME280;10167;42.852;23.042;2023-04-28T07:06:57;95302.16;;;11.05;51.21
20013;BME280;10167;42.852;23.042;2023-04-28T07:09:27;95300.41;;;11.22;51.60
20013;BME280;10167;42.852;23.042;2023-04-28T07:11:58;95301.00;;;11.48;51.60
20013;BME280;10167;42.852;23.042;2023-04-28T07:14:27;95304.09;;;11.80;49.45
20013;BME280;10167;42.852;23.042;2023-04-28T07:16:59;95307.75;;;11.90;48.83
20013;BME280;10167;42.852;23.042;2023-04-28T07:19:28;95307.91;;;11.84;46.90
20013;BME280;10167;42.852;23.042;2023-04-28T07:21:57;95314.31;;;11.99;47.16
20013;BME280;10167;42.852;23.042;2023-04-28T07:24:26;95304.84;;;12.04;47.63
20013;BME280;10167;42.852;23.042;2023-04-28T07:26:56;95308.72;;;12.13;47.43
20013;BME280;10167;42.852;23.042;2023-04-28T07:29:25;95309.06;;;12.16;45.76
20013;BME280;10167;42.852;23.042;2023-04-28T07:32:01;95301.78;;;12.23;46.77
20013;BME280;10167;42.852;23.042;2023-04-28T07:34:33;95297.91;;;12.31;45.70
20013;BME280;10167;42.852;23.042;2023-04-28T07:37:03;95296.50;;;12.12;45.00
20013;BME280;10167;42.852;23.042;2023-04-28T07:39:34;95302.91;;;12.27;44.37
20013;BME280;10167;42.852;23.042;2023-04-28T07:42:03;95301.44;;;12.48;47.17
20013;BME280;10167;42.852;23.042;2023-04-28T07:44:32;95295.69;;;12.68;44.77
20013;BME280;10167;42.852;23.042;2023-04-28T07:47:03;95298.75;;;12.93;45.36
20013;BME280;10167;42.852;23.042;2023-04-28T07:49:32;95306.44;;;13.23;46.09
20013;BME280;10167;42.852;23.042;2023-04-28T07:52:01;95311.38;;;13.31;43.34
20013;BME280;10167;42.852;23.042;2023-04-28T07:54:31;95305.16;;;13.42;44.19
20013;BME280;10167;42.852;23.042;2023-04-28T07:57:03;95302.50;;;13.42;43.20
20013;BME280;10167;42.852;23.042;2023-04-28T07:59:33;95305.06;;;13.37;43.79
20013;BME280;10167;42.852;23.042;2023-04-28T08:02:03;95309.28;;;13.55;41.79
20013;BME280;10167;42.852;23.042;2023-04-28T08:04:33;95308.44;;;13.50;42.82
20013;BME280;10167;42.852;23.042;2023-04-28T08:07:07;95315.88;;;13.69;41.49
20013;BME280;10167;42.852;23.042;2023-04-28T08:09:37;95311.03;;;13.83;41.89
20013;BME280;10167;42.852;23.042;2023-04-28T08:12:08;95314.28;;;13.90;40.18
20013;BME280;10167;42.852;23.042;2023-04-28T08:14:37;95311.59;;;13.85;41.85
20013;BME280;10167;42.852;23.042;2023-04-28T08:17:08;95308.56;;;13.76;40.66
20013;BME280;10167;42.852;23.042;2023-04-28T08:19:37;95318.81;;;14.11;40.25
20013;BME280;10167;42.852;23.042;2023-04-28T08:22:06;95306.28;;;14.34;43.15
20013;BME280;10167;42.852;23.042;2023-04-28T08:24:35;95311.13;;;14.59;42.02
20013;BME280;10167;42.852;23.042;2023-04-28T08:27:05;95312.28;;;14.68;40.94
20013;BME280;10167;42.852;23.042;2023-04-28T08:29:35;95308.81;;;14.67;38.65
20013;BME280;10167;42.852;23.042;2023-04-28T08:32:04;95309.88;;;14.66;40.38
20013;BME280;10167;42.852;23.042;2023-04-28T08:34:35;95310.00;;;14.81;39.67
20013;BME280;10167;42.852;23.042;2023-04-28T08:37:05;95303.78;;;15.03;40.15
20013;BME280;10167;42.852;23.042;2023-04-28T08:39:34;95300.13;;;15.09;38.45
20013;BME280;10167;42.852;23.042;2023-04-28T08:42:03;95300.16;;;15.14;39.40
20013;BME280;10167;42.852;23.042;2023-04-28T08:44:36;95303.69;;;15.19;37.38
20013;BME280;10167;42.852;23.042;2023-04-28T08:47:11;95302.38;;;15.22;38.50
20013;BME280;10167;42.852;23.042;2023-04-28T08:49:43;95299.34;;;15.45;38.49
20013;BME280;10167;42.852;23.042;2023-04-28T08:52:16;95303.34;;;15.48;38.25
20013;BME280;10167;42.852;23.042;2023-04-28T08:54:47;95299.91;;;15.52;37.58
20013;BME280;10167;42.852;23.042;2023-04-28T08:57:18;95295.56;;;15.78;36.84
20013;BME280;10167;42.852;23.042;2023-04-28T08:59:48;95289.31;;;15.63;37.25
20013;BME280;10167;42.852;23.042;2023-04-28T09:02:18;95281.00;;;15.59;36.07
20013;BME280;10167;42.852;23.042;2023-04-28T09:04:49;95282.28;;;15.51;35.50
20013;BME280;10167;42.852;23.042;2023-04-28T09:07:20;95293.16;;;15.77;36.38
20013;BME280;10167;42.852;23.042;2023-04-28T09:09:49;95286.25;;;15.44;36.46
20013;BME280;10167;42.852;23.042;2023-04-28T09:12:18;95289.75;;;15.49;36.23
20013;BME280;10167;42.852;23.042;2023-04-28T09:14:57;95287.16;;;15.59;35.37
20013;BME280;10167;42.852;23.042;2023-04-28T09:17:29;95282.03;;;16.00;36.45
20013;BME280;10167;42.852;23.042;2023-04-28T09:20:00;95273.81;;;16.17;37.46
20013;BME280;10167;42.852;23.042;2023-04-28T09:22:31;95271.16;;;16.22;35.98
20013;BME280;10167;42.852;23.042;2023-04-28T09:25:10;95258.94;;;16.46;36.67
20013;BME280;10167;42.852;23.042;2023-04-28T09:27:39;95267.50;;;16.53;35.08
20013;BME280;10167;42.852;23.042;2023-04-28T09:30:09;95261.59;;;16.41;36.36
20013;BME280;10167;42.852;23.042;2023-04-28T09:32:39;95270.25;;;16.68;34.33
20013;BME280;10167;42.852;23.042;2023-04-28T09:35:09;95257.66;;;16.64;36.17
20013;BME280;10167;42.852;23.042;2023-04-28T09:37:39;95252.59;;;16.78;34.96
20013;BME280;10167;42.852;23.042;2023-04-28T09:40:10;95248.31;;;16.87;34.37
20013;BME280;10167;42.852;23.042;2023-04-28T09:42:40;95249.66;;;16.94;34.14
20013;BME280;10167;42.852;23.042;2023-04-28T09:45:11;95250.19;;;17.37;34.66
20013;BME280;10167;42.852;23.042;2023-04-28T09:47:41;95244.25;;;17.45;33.84
20013;BME280;10167;42.852;23.042;2023-04-28T09:50:13;95247.22;;;17.49;33.59
20013;BME280;10167;42.852;23.042;2023-04-28T09:52:44;95235.69;;;17.48;37.19
20013;BME280;10167;42.852;23.042;2023-04-28T09:55:15;95237.59;;;17.32;34.55
20013;BME280;10167;42.852;23.042;2023-04-28T09:57:48;95232.00;;;17.24;37.95
20013;BME280;10167;42.852;23.042;2023-04-28T10:00:17;95241.03;;;17.63;35.12
20013;BME280;10167;42.852;23.042;2023-04-28T10:02:48;95232.97;;;17.73;33.65
20013;BME280;10167;42.852;23.042;2023-04-28T10:05:22;95225.69;;;17.84;36.64
20013;BME280;10167;42.852;23.042;2023-04-28T10:07:52;95226.91;;;18.17;34.04
20013;BME280;10167;42.852;23.042;2023-04-28T10:10:22;95229.06;;;18.10;34.20
20013;BME280;10167;42.852;23.042;2023-04-28T10:12:54;95226.06;;;18.22;32.69
20013;BME280;10167;42.852;23.042;2023-04-28T10:15:23;95216.53;;;18.00;35.07
20013;BME280;10167;42.852;23.042;2023-04-28T10:17:53;95213.91;;;18.39;35.00
20013;BME280;10167;42.852;23.042;2023-04-28T10:20:25;95210.97;;;18.36;33.35
20013;BME280;10167;42.852;23.042;2023-04-28T10:23:00;95211.91;;;18.16;34.10
20013;BME280;10167;42.852;23.042;2023-04-28T10:25:35;95201.13;;;18.26;32.84
20013;BME280;10167;42.852;23.042;2023-04-28T10:28:07;95203.94;;;18.45;33.62
20013;BME280;10167;42.852;23.042;2023-04-28T10:30:37;95196.69;;;18.50;35.84
20013;BME280;10167;42.852;23.042;2023-04-28T10:33:22;95203.50;;;18.33;34.23
20013;BME280;10167;42.852;23.042;2023-04-28T10:35:55;95194.31;;;18.44;32.55
20013;BME280;10167;42.852;23.042;2023-04-28T10:38:24;95196.09;;;18.54;33.13
20013;BME280;10167;42.852;23.042;2023-04-28T10:40:53;95185.72;;;17.98;33.00
20013;BME280;10167;42.852;23.042;2023-04-28T10:43:37;95181.63;;;18.60;34.56
20013;BME280;10167;42.852;23.042;2023-04-28T10:46:08;95180.38;;;18.81;34.56
20013;BME280;10167;42.852;23.042;2023-04-28T10:49:05;95177.81;;;18.66;32.29
20013;BME280;10167;42.852;23.042;2023-04-28T10:51:36;95163.19;;;18.48;31.99
20013;BME280;10167;42.852;23.042;2023-04-28T10:54:16;95164.72;;;18.93;33.83
20013;BME280;10167;42.852;23.042;2023-04-28T10:57:19;95167.59;;;18.68;33.11
20013;BME280;10167;42.852;23.042;2023-04-28T10:59:49;95169.97;;;18.74;32.10
20013;BME280;10167;42.852;23.042;2023-04-28T11:02:40;95151.94;;;18.41;32.15
20013;BME280;10167;42.852;23.042;2023-04-28T11:05:18;95154.78;;;18.94;31.91
20013;BME280;10167;42.852;23.042;2023-04-28T11:11:28;95146.19;;;19.20;31.48
20013;BME280;10167;42.852;23.042;2023-04-28T11:14:30;95143.75;;;19.24;32.73
20013;BME280;10167;42.852;23.042;2023-04-28T11:17:01;95139.81;;;19.16;32.07
20013;BME280;10167;42.852;23.042;2023-04-28T11:19:32;95138.19;;;19.15;30.89
20013;BME280;10167;42.852;23.042;2023-04-28T11:22:02;95131.53;;;19.37;30.63
20013;BME280;10167;42.852;23.042;2023-04-28T11:24:31;95132.88;;;19.34;30.34
20013;BME280;10167;42.852;23.042;2023-04-28T11:27:02;95125.00;;;19.43;31.28
20013;BME280;10167;42.852;23.042;2023-04-28T11:29:32;95120.72;;;19.66;30.83
20013;BME280;10167;42.852;23.042;2023-04-28T11:32:03;95122.47;;;19.75;31.55
20013;BME280;10167;42.852;23.042;2023-04-28T11:34:33;95122.25;;;19.96;33.41
20013;BME280;10167;42.852;23.042;2023-04-28T11:37:02;95121.50;;;19.90;30.85
20013;BME280;10167;42.852;23.042;2023-04-28T11:39:33;95113.00;;;19.83;31.27
20013;BME280;10167;42.852;23.042;2023-04-28T11:42:09;95117.38;;;19.98;31.27
20013;BME280;10167;42.852;23.042;2023-04-28T11:44:39;95118.16;;;20.17;30.43
20013;BME280;10167;42.852;23.042;2023-04-28T11:47:08;95119.09;;;20.45;31.04
20013;BME280;10167;42.852;23.042;2023-04-28T11:49:44;95110.53;;;20.61;29.79
20013;BME280;10167;42.852;23.042;2023-04-28T11:52:13;95108.69;;;20.89;29.15
20013;BME280;10167;42.852;23.042;2023-04-28T11:54:42;95105.53;;;21.15;29.28
20013;BME280;10167;42.852;23.042;2023-04-28T11:57:18;95105.97;;;21.35;29.99
20013;BME280;10167;42.852;23.042;2023-04-28T11:59:48;95106.38;;;21.70;29.61
20013;BME280;10167;42.852;23.042;2023-04-28T12:02:24;95098.69;;;22.27;29.42
20013;BME280;10167;42.852;23.042;2023-04-28T12:05:04;95095.84;;;22.45;27.85
20013;BME280;10167;42.852;23.042;2023-04-28T12:07:40;95091.22;;;22.46;26.73
20013;BME280;10167;42.852;23.042;2023-04-28T12:10:11;95091.59;;;22.98;27.39
20013;BME280;10167;42.852;23.042;2023-04-28T12:12:44;95088.72;;;23.03;25.70
20013;BME280;10167;42.852;23.042;2023-04-28T12:15:20;95091.81;;;23.10;27.22
20013;BME280;10167;42.852;23.042;2023-04-28T12:17:51;95089.53;;;23.03;26.81
20013;BME280;10167;42.852;23.042;2023-04-28T12:20:33;95086.22;;;23.46;26.01
20013;BME280;10167;42.852;23.042;2023-04-28T12:23:03;95083.28;;;23.65;25.00
20013;BME280;10167;42.852;23.042;2023-04-28T12:25:42;95089.56;;;24.17;25.22
20013;BME280;10167;42.852;23.042;2023-04-28T12:28:13;95081.66;;;24.55;24.75
20013;BME280;10167;42.852;23.042;2023-04-28T12:30:42;95082.56;;;24.16;24.54
20013;BME280;10167;42.852;23.042;2023-04-28T12:33:21;95078.13;;;24.72;24.43
20013;BME280;10167;42.852;23.042;2023-04-28T12:35:51;95068.59;;;24.48;25.05
20013;BME280;10167;42.852;23.042;2023-04-28T12:38:22;95072.19;;;24.95;24.76
20013;BME280;10167;42.852;23.042;2023-04-28T12:40:51;95072.97;;;24.87;24.51
20013;BME280;10167;42.852;23.042;2023-04-28T12:43:22;95064.34;;;25.11;23.52
20013;BME280;10167;42.852;23.042;2023-04-28T12:45:52;95064.63;;;25.18;22.99
20013;BME280;10167;42.852;23.042;2023-04-28T12:48:22;95056.19;;;25.20;22.82
20013;BME280;10167;42.852;23.042;2023-04-28T12:50:52;95061.16;;;25.09;24.15
20013;BME280;10167;42.852;23.042;2023-04-28T12:53:21;95046.44;;;25.19;24.37
20013;BME280;10167;42.852;23.042;2023-04-28T12:55:50;95051.03;;;25.94;24.17
20013;BME280;10167;42.852;23.042;2023-04-28T12:58:21;95036.59;;;25.82;24.13
20013;BME280;10167;42.852;23.042;2023-04-28T13:00:50;95052.84;;;24.33;23.88
20013;BME280;10167;42.852;23.042;2023-04-28T13:03:20;95054.78;;;25.14;23.45
20013;BME280;10167;42.852;23.042;2023-04-28T13:05:51;95055.16;;;25.33;24.13
20013;BME280;10167;42.852;23.042;2023-04-28T13:08:21;95043.75;;;24.55;24.68
20013;BME280;10167;42.852;23.042;2023-04-28T13:10:50;95041.06;;;24.38;24.36
20013;BME280;10167;42.852;23.042;2023-04-28T13:13:21;95049.75;;;24.78;23.92